Terminal Aerodrome Forecast
Issued by NWS Riverton, WY

Home | Current Version | Previous Version | Text Only | Print | Product List | Glossary On
Versions: 1 2 3 4 5 6 7 8 9 10 11 12 13
000
FTUS45 KRIW 212000 AAA
TAFRIW
TAF AMD
KRIW 212000Z 2120/2218 22018G25KT P6SM SCT070 BKN120
      TEMPO 2120/2121 26030G40KT -SHRA BKN080
     FM220200 30016G26KT P6SM SCT100
     FM220700 30009KT P6SM FEW150
     FM221400 VRB04KT P6SM SKC=

USA.gov is the U.S. government's official web portal to all federal, state and local government web resources and services.